createdAt,value
2023-02-28T00:01:47.663Z,99.90
2023-02-28T00:04:27.642Z,99.90
2023-02-28T00:13:57.077Z,99.90
2023-02-28T00:16:59.667Z,99.90
2023-02-28T00:20:05.087Z,99.90
2023-02-28T00:22:53.544Z,99.90
2023-02-28T00:25:31.501Z,99.90
2023-02-28T00:31:26.447Z,99.90
2023-02-28T00:34:15.148Z,99.90
2023-02-28T00:37:00.259Z,99.90
2023-02-28T00:39:37.116Z,99.90
2023-02-28T00:42:11.628Z,99.90
2023-02-28T00:45:11.618Z,99.90
2023-02-28T00:53:46.022Z,99.90
2023-02-28T01:02:33.226Z,99.90
2023-02-28T01:05:14.822Z,99.90
2023-02-28T01:07:53.859Z,99.90
2023-02-28T01:10:36.102Z,99.90
2023-02-28T01:16:29.218Z,99.90
2023-02-28T01:19:35.779Z,99.90
2023-02-28T01:25:14.362Z,99.90
2023-02-28T01:28:00.740Z,99.90
2023-02-28T01:30:43.709Z,99.90
2023-02-28T01:33:31.810Z,99.90
2023-02-28T01:36:24.580Z,99.90
2023-02-28T01:39:44.279Z,99.90
2023-02-28T01:48:17.694Z,99.90
2023-02-28T01:51:16.123Z,99.90
2023-02-28T01:54:18.725Z,99.90
2023-02-28T02:03:22.509Z,99.90
2023-02-28T02:06:03.481Z,99.90
2023-02-28T02:08:35.322Z,99.90
2023-02-28T02:11:11.073Z,99.90
2023-02-28T02:14:07.305Z,99.90
2023-02-28T02:17:09.372Z,99.90
2023-02-28T02:20:32.421Z,99.90
2023-02-28T02:23:30.811Z,99.90
2023-02-28T02:26:17.537Z,99.90
2023-02-28T02:29:16.892Z,99.90
2023-02-28T02:32:17.317Z,99.90
2023-02-28T02:35:12.590Z,99.90
2023-02-28T02:38:13.239Z,99.90
2023-02-28T02:41:04.584Z,99.90
2023-02-28T02:43:43.941Z,99.90
2023-02-28T02:46:49.927Z,99.90
2023-02-28T02:49:26.260Z,99.90
2023-02-28T02:55:08.745Z,99.90
2023-02-28T02:57:46.906Z,99.90
2023-02-28T03:00:24.421Z,99.90
2023-02-28T03:03:05.617Z,99.90
2023-02-28T03:05:44.103Z,99.90
2023-02-28T03:08:41.692Z,99.90
2023-02-28T03:11:19.452Z,99.90
2023-02-28T03:14:18.729Z,99.90
2023-02-28T03:17:03.135Z,99.90
2023-02-28T03:19:53.583Z,99.90
2023-02-28T03:22:44.131Z,99.90
2023-02-28T03:25:46.645Z,99.90
2023-02-28T03:28:38.956Z,99.90
2023-02-28T03:31:29.191Z,99.90
2023-02-28T03:34:09.066Z,99.90
2023-02-28T03:36:54.984Z,99.90
2023-02-28T03:42:54.515Z,99.90
2023-02-28T03:45:39.367Z,99.90
2023-02-28T03:48:42.948Z,99.90
2023-02-28T03:51:18.859Z,99.90
2023-02-28T03:54:10.517Z,99.90
2023-02-28T03:56:47.138Z,99.90
2023-02-28T03:59:22.982Z,99.90
2023-02-28T04:02:02.769Z,99.90
2023-02-28T04:04:48.429Z,99.90
2023-02-28T04:07:21.075Z,99.90
2023-02-28T04:12:45.230Z,99.90
2023-02-28T04:15:17.701Z,99.90
2023-02-28T04:18:11.617Z,99.90
2023-02-28T04:21:07.218Z,99.90
2023-02-28T04:23:47.939Z,99.90
2023-02-28T04:26:38.039Z,99.90
2023-02-28T04:29:40.478Z,99.90
2023-02-28T04:32:19.880Z,99.90
2023-02-28T04:34:58.167Z,99.90
2023-02-28T04:37:36.441Z,99.90
2023-02-28T04:40:13.608Z,99.90
2023-02-28T04:42:56.258Z,99.90
2023-02-28T04:45:29.873Z,99.90
2023-02-28T04:48:04.257Z,99.90
2023-02-28T04:51:00.575Z,99.90
2023-02-28T05:02:08.408Z,99.90
2023-02-28T05:04:49.175Z,99.90
2023-02-28T05:07:26.822Z,99.90
2023-02-28T05:10:21.142Z,99.90
2023-02-28T05:13:21.381Z,99.90
2023-02-28T05:16:18.973Z,99.90
2023-02-28T05:18:53.089Z,99.90
2023-02-28T05:21:44.411Z,99.90
2023-02-28T05:24:48.911Z,99.90
2023-02-28T05:27:24.743Z,99.90
2023-02-28T05:30:16.291Z,99.90
2023-02-28T05:33:08.729Z,99.90
2023-02-28T05:35:42.999Z,99.90
2023-02-28T05:38:27.297Z,99.90
2023-02-28T05:41:14.662Z,99.90
2023-02-28T05:47:03.501Z,99.90
2023-02-28T05:49:45.841Z,99.90
2023-02-28T05:55:30.384Z,99.90
2023-02-28T05:58:20.729Z,99.90
2023-02-28T06:03:54.506Z,99.90
2023-02-28T06:06:36.754Z,99.90
2023-02-28T06:09:13.215Z,99.90
2023-02-28T06:11:53.216Z,99.90
2023-02-28T06:14:37.273Z,99.90
2023-02-28T06:17:17.619Z,99.90
2023-02-28T06:25:52.706Z,99.90
2023-02-28T06:31:21.838Z,99.90
2023-02-28T06:34:01.913Z,99.90
2023-02-28T06:36:40.198Z,99.90
2023-02-28T06:39:16.058Z,99.90
2023-02-28T06:42:15.896Z,99.90
2023-02-28T06:47:57.973Z,99.90
2023-02-28T06:50:45.989Z,99.90
2023-02-28T06:53:29.810Z,99.90
2023-02-28T06:56:12.377Z,99.90
2023-02-28T06:58:44.879Z,99.90
2023-02-28T07:01:23.881Z,99.90
2023-02-28T07:04:00.371Z,99.90
2023-02-28T07:06:43.576Z,99.90
2023-02-28T07:09:14.553Z,99.90
2023-02-28T07:11:56.114Z,99.90
2023-02-28T07:14:47.623Z,99.90
2023-02-28T07:17:33.323Z,99.90
2023-02-28T07:20:11.082Z,99.90
2023-02-28T07:23:02.534Z,99.90
2023-02-28T07:28:25.883Z,99.90
2023-02-28T07:31:00.373Z,99.90
2023-02-28T07:33:37.516Z,99.90
2023-02-28T07:36:24.202Z,99.90
2023-02-28T07:41:52.033Z,99.90
2023-02-28T07:44:32.235Z,99.90
2023-02-28T07:47:09.881Z,99.90
2023-02-28T07:49:48.589Z,99.90
2023-02-28T07:52:34.277Z,99.90
2023-02-28T07:55:10.006Z,99.90
2023-02-28T07:57:40.442Z,99.90
2023-02-28T08:03:06.207Z,99.90
2023-02-28T08:05:39.105Z,99.90
2023-02-28T08:08:09.902Z,99.90
2023-02-28T08:11:10.702Z,99.90
2023-02-28T08:13:57.981Z,99.90
2023-02-28T08:16:35.113Z,99.90
2023-02-28T08:22:10.220Z,99.90
2023-02-28T08:24:58.703Z,99.90
2023-02-28T08:27:43.049Z,99.90
2023-02-28T08:30:44.800Z,99.90
2023-02-28T08:33:37.961Z,99.90
2023-02-28T08:36:57.994Z,99.90
2023-02-28T08:39:42.224Z,99.90
2023-02-28T08:42:22.465Z,99.90
2023-02-28T08:44:58.817Z,99.00
2023-02-28T08:47:34.903Z,97.70
2023-02-28T08:50:22.519Z,97.70
2023-02-28T08:52:56.592Z,97.90
2023-02-28T08:55:42.894Z,98.10
2023-02-28T08:58:41.875Z,97.00
2023-02-28T09:01:38.670Z,97.40
2023-02-28T09:04:28.035Z,97.20
2023-02-28T09:07:15.630Z,97.70
2023-02-28T09:13:10.541Z,96.70
2023-02-28T09:16:08.287Z,95.60
2023-02-28T09:18:52.577Z,95.90
2023-02-28T09:21:25.713Z,96.60
2023-02-28T09:24:28.655Z,95.50
2023-02-28T09:27:08.319Z,96.40
2023-02-28T09:29:46.493Z,94.90
2023-02-28T09:32:42.213Z,94.30
2023-02-28T09:38:13.545Z,93.70
2023-02-28T09:41:12.776Z,93.50
2023-02-28T09:43:56.585Z,94.30
2023-02-28T09:49:41.104Z,93.10
2023-02-28T09:52:30.439Z,92.00
2023-02-28T09:55:47.120Z,91.70
2023-02-28T09:58:32.347Z,91.40
2023-02-28T10:01:20.731Z,89.60
2023-02-28T10:04:11.873Z,90.70
2023-02-28T10:07:02.552Z,90.20
2023-02-28T10:09:41.718Z,90.30
2023-02-28T10:12:13.697Z,88.80
2023-02-28T10:14:54.034Z,87.70
2023-02-28T10:17:54.860Z,86.10
2023-02-28T10:20:53.226Z,86.30
2023-02-28T10:23:46.663Z,87.90
2023-02-28T10:26:47.353Z,87.60
2023-02-28T10:29:47.852Z,86.70
2023-02-28T10:32:28.434Z,87.70
2023-02-28T10:35:05.806Z,87.40
2023-02-28T10:37:45.101Z,88.30
2023-02-28T10:40:38.866Z,88.10
2023-02-28T10:43:37.484Z,87.70
2023-02-28T10:46:29.259Z,87.10
2023-02-28T10:49:28.757Z,87.80
2023-02-28T10:52:15.250Z,88.80
2023-02-28T10:55:05.838Z,89.00
2023-02-28T10:57:43.903Z,87.60
2023-02-28T11:00:25.954Z,88.00
2023-02-28T11:02:57.205Z,88.50
2023-02-28T11:05:48.543Z,88.50
2023-02-28T11:08:24.984Z,88.70
2023-02-28T11:11:03.304Z,90.10
2023-02-28T11:13:51.538Z,88.50
2023-02-28T11:16:48.473Z,89.90
2023-02-28T11:19:24.326Z,89.10
2023-02-28T11:22:12.076Z,88.10
2023-02-28T11:25:01.680Z,88.00
2023-02-28T11:27:52.891Z,87.80
2023-02-28T11:30:36.709Z,87.20
2023-02-28T11:33:49.212Z,87.30
2023-02-28T11:36:34.618Z,88.40
2023-02-28T11:39:12.834Z,88.10
2023-02-28T11:41:55.588Z,87.70
2023-02-28T11:44:43.179Z,88.30
2023-02-28T11:47:19.755Z,89.10
2023-02-28T11:50:17.997Z,89.10
2023-02-28T11:53:00.756Z,89.40
2023-02-28T11:55:58.463Z,90.40
2023-02-28T11:58:59.551Z,89.80
2023-02-28T12:01:48.266Z,89.20
2023-02-28T12:04:40.706Z,87.90
2023-02-28T12:07:17.216Z,88.50
2023-02-28T12:09:58.565Z,88.50
2023-02-28T12:12:52.557Z,87.70
2023-02-28T12:15:36.556Z,89.00
2023-02-28T12:18:33.155Z,87.80
2023-02-28T12:21:32.535Z,86.80
2023-02-28T12:24:23.143Z,86.20
2023-02-28T12:26:59.502Z,87.00
2023-02-28T12:29:38.631Z,87.20
2023-02-28T12:32:26.321Z,87.60
2023-02-28T12:35:24.590Z,89.30
2023-02-28T12:38:09.163Z,87.60
2023-02-28T12:40:51.902Z,87.40
2023-02-28T12:43:44.161Z,87.40
2023-02-28T12:46:23.878Z,85.80
2023-02-28T12:49:18.295Z,86.80
2023-02-28T12:51:56.580Z,88.40
2023-02-28T12:54:34.451Z,86.80
2023-02-28T12:57:14.894Z,87.30
2023-02-28T12:59:55.721Z,88.20
2023-02-28T13:03:11.890Z,87.50
2023-02-28T13:06:07.546Z,87.50
2023-02-28T13:08:55.558Z,88.60
2023-02-28T13:12:02.418Z,86.50
2023-02-28T13:14:55.515Z,88.70
2023-02-28T13:17:33.237Z,88.10
2023-02-28T13:23:19.062Z,88.70
2023-02-28T13:25:59.536Z,89.10
2023-02-28T13:29:10.358Z,88.70
2023-02-28T13:32:00.217Z,88.80
2023-02-28T13:34:44.991Z,89.60
2023-02-28T13:37:33.409Z,88.90
2023-02-28T13:40:22.739Z,88.60
2023-02-28T13:43:27.889Z,89.40
2023-02-28T13:46:31.978Z,87.90
2023-02-28T13:49:25.693Z,89.10
2023-02-28T13:52:10.702Z,88.60
2023-02-28T13:54:55.753Z,89.10
2023-02-28T13:57:40.606Z,89.20
2023-02-28T14:00:27.125Z,89.30
2023-02-28T14:03:19.002Z,89.60
2023-02-28T14:06:11.012Z,90.10
2023-02-28T14:08:49.352Z,89.70
2023-02-28T14:11:33.395Z,89.40
2023-02-28T14:14:27.014Z,90.20
2023-02-28T14:17:06.821Z,90.40
2023-02-28T14:19:42.313Z,90.40
2023-02-28T14:22:23.931Z,88.80
2023-02-28T14:25:11.292Z,89.50
2023-02-28T14:27:58.103Z,89.50
2023-02-28T14:30:48.798Z,89.90
2023-02-28T14:33:31.166Z,90.30
2023-02-28T14:36:37.771Z,89.70
2023-02-28T14:44:52.928Z,89.10
2023-02-28T14:47:27.858Z,89.70
2023-02-28T14:49:59.335Z,89.90
2023-02-28T14:52:38.548Z,90.30
2023-02-28T14:55:28.434Z,90.50
2023-02-28T14:58:07.978Z,91.00
2023-02-28T15:00:42.604Z,90.70
2023-02-28T15:03:24.264Z,90.60
2023-02-28T15:06:25.811Z,90.90
2023-02-28T15:09:12.073Z,90.90
2023-02-28T15:11:53.373Z,91.10
2023-02-28T15:14:35.629Z,91.10
2023-02-28T15:17:15.939Z,90.80
2023-02-28T15:19:51.421Z,91.00
2023-02-28T15:22:35.752Z,90.90
2023-02-28T15:25:26.272Z,91.10
2023-02-28T15:28:18.130Z,91.20
2023-02-28T15:31:07.373Z,91.10
2023-02-28T15:34:10.178Z,91.30
2023-02-28T15:36:45.809Z,91.50
2023-02-28T15:39:29.499Z,91.90
2023-02-28T15:42:17.969Z,92.00
2023-02-28T15:45:04.680Z,91.90
2023-02-28T15:47:50.118Z,92.30
2023-02-28T15:50:43.085Z,92.20
2023-02-28T15:53:22.943Z,91.70
2023-02-28T15:56:19.292Z,91.80
2023-02-28T15:59:21.039Z,92.30
2023-02-28T16:01:58.137Z,92.30
2023-02-28T16:04:32.072Z,92.60
2023-02-28T16:07:21.670Z,93.20
2023-02-28T16:09:58.158Z,93.30
2023-02-28T16:13:06.208Z,93.50
2023-02-28T16:15:52.351Z,93.50
2023-02-28T16:18:32.442Z,93.70
2023-02-28T16:21:32.577Z,94.50
2023-02-28T16:27:01.567Z,94.50
2023-02-28T16:29:36.492Z,95.00
2023-02-28T16:32:15.033Z,94.90
2023-02-28T16:34:54.757Z,95.10
2023-02-28T16:37:28.552Z,95.10
2023-02-28T16:40:22.044Z,95.30
2023-02-28T16:43:16.551Z,95.60
2023-02-28T16:46:07.156Z,96.60
2023-02-28T16:48:48.513Z,96.60
2023-02-28T16:51:19.336Z,96.60
2023-02-28T16:53:53.034Z,96.50
2023-02-28T16:56:29.265Z,96.80
2023-02-28T17:02:27.789Z,97.80
2023-02-28T17:05:02.726Z,97.90
2023-02-28T17:07:44.824Z,98.70
2023-02-28T17:10:40.619Z,99.00
2023-02-28T17:13:21.152Z,99.40
2023-02-28T17:15:56.140Z,99.90
2023-02-28T17:18:35.724Z,99.90
2023-02-28T17:21:07.602Z,99.90
2023-02-28T17:23:50.753Z,99.90
2023-02-28T17:26:30.998Z,99.90
2023-02-28T17:29:10.453Z,99.90
2023-02-28T17:31:54.961Z,99.90
2023-02-28T17:34:36.028Z,99.90
2023-02-28T17:37:19.193Z,99.90
2023-02-28T17:40:10.910Z,99.90
2023-02-28T17:45:46.748Z,99.90
2023-02-28T17:51:18.947Z,99.90
2023-02-28T17:53:51.827Z,99.90
2023-02-28T17:59:48.469Z,99.90
2023-02-28T18:02:27.211Z,99.90
2023-02-28T18:05:01.463Z,99.90
2023-02-28T18:07:56.308Z,99.90
2023-02-28T18:10:29.764Z,99.90
2023-02-28T18:13:19.897Z,99.90
2023-02-28T18:16:20.309Z,99.90
2023-02-28T18:19:13.507Z,99.90
2023-02-28T18:21:43.508Z,99.90
2023-02-28T18:24:16.817Z,99.90
2023-02-28T18:26:48.515Z,99.90
2023-02-28T18:29:25.803Z,99.90
2023-02-28T18:32:14.314Z,99.90
2023-02-28T18:35:06.018Z,99.90
2023-02-28T18:37:46.840Z,99.90
2023-02-28T18:40:26.645Z,99.90
2023-02-28T18:43:06.127Z,99.90
2023-02-28T18:45:48.462Z,99.90
2023-02-28T18:48:39.115Z,99.90
2023-02-28T18:51:17.490Z,99.90
2023-02-28T18:53:53.599Z,99.90
2023-02-28T18:56:37.930Z,99.90
2023-02-28T18:59:07.816Z,99.90
2023-02-28T19:04:37.883Z,99.90
2023-02-28T19:07:39.310Z,99.90
2023-02-28T19:10:11.645Z,99.90
2023-02-28T19:13:08.439Z,99.90
2023-02-28T19:15:45.089Z,99.90
2023-02-28T19:18:18.890Z,99.90
2023-02-28T19:20:50.530Z,99.90
2023-02-28T19:23:27.729Z,99.90
2023-02-28T19:26:01.950Z,99.90
2023-02-28T19:28:43.042Z,99.90
2023-02-28T19:31:36.957Z,99.90
2023-02-28T19:37:11.317Z,99.90
2023-02-28T19:40:01.504Z,99.90
2023-02-28T19:42:56.961Z,99.90
2023-02-28T19:45:44.140Z,99.90
2023-02-28T19:48:15.324Z,99.90
2023-02-28T19:50:44.894Z,99.90
2023-02-28T19:53:35.761Z,99.90
2023-02-28T19:56:11.850Z,99.90
2023-02-28T19:58:48.918Z,99.90
2023-02-28T20:01:24.316Z,99.90
2023-02-28T20:04:20.097Z,99.90
2023-02-28T20:07:06.531Z,99.90
2023-02-28T20:09:48.180Z,99.90
2023-02-28T20:12:25.189Z,99.90
2023-02-28T20:15:16.553Z,99.90
2023-02-28T20:18:03.753Z,99.90
2023-02-28T20:20:36.914Z,99.90
2023-02-28T20:26:36.735Z,99.90
2023-02-28T20:29:23.214Z,99.90
2023-02-28T20:31:53.241Z,99.90
2023-02-28T20:37:28.376Z,99.90
2023-02-28T20:40:22.492Z,99.90
2023-02-28T20:46:18.204Z,99.90
2023-02-28T20:48:50.997Z,99.90
2023-02-28T20:51:37.375Z,99.90
2023-02-28T20:54:15.334Z,99.90
2023-02-28T20:57:01.876Z,99.90
2023-02-28T20:59:32.426Z,99.90
2023-02-28T21:02:07.790Z,99.90
2023-02-28T21:04:46.495Z,99.90
2023-02-28T21:07:25.497Z,99.90
2023-02-28T21:10:40.797Z,99.90
2023-02-28T21:13:10.198Z,99.90
2023-02-28T21:16:04.964Z,99.90
2023-02-28T21:21:28.278Z,99.90
2023-02-28T21:24:02.705Z,99.90
2023-02-28T21:26:38.248Z,99.90
2023-02-28T21:29:25.385Z,99.90
2023-02-28T21:32:01.673Z,99.90
2023-02-28T21:34:46.318Z,99.90
2023-02-28T21:37:23.298Z,99.90
2023-02-28T21:40:01.064Z,99.90
2023-02-28T21:45:27.179Z,99.90
2023-02-28T21:48:01.379Z,99.90
2023-02-28T21:50:32.767Z,99.90
2023-02-28T21:53:05.193Z,99.90
2023-02-28T21:55:54.047Z,99.90
2023-02-28T21:58:42.458Z,99.90
2023-02-28T22:01:22.043Z,99.90
2023-02-28T22:03:54.667Z,99.90
2023-02-28T22:06:40.497Z,99.90
2023-02-28T22:09:16.659Z,99.90
2023-02-28T22:14:38.077Z,99.90
2023-02-28T22:17:17.725Z,99.90
2023-02-28T22:19:52.380Z,99.90
2023-02-28T22:22:31.924Z,99.90
2023-02-28T22:25:21.242Z,99.90
2023-02-28T22:31:04.859Z,99.90
2023-02-28T22:33:50.889Z,99.90
2023-02-28T22:39:19.298Z,99.90
2023-02-28T22:42:01.756Z,99.90
2023-02-28T22:44:46.082Z,99.90
2023-02-28T22:50:38.136Z,99.90
2023-02-28T22:53:37.124Z,99.90
2023-02-28T22:56:17.518Z,99.90
2023-02-28T22:58:55.423Z,99.90
2023-02-28T23:05:09.070Z,99.90
2023-02-28T23:11:30.954Z,99.90
2023-02-28T23:14:19.246Z,99.90
2023-02-28T23:20:01.869Z,99.90
2023-02-28T23:22:55.535Z,99.90
2023-02-28T23:25:33.204Z,99.90
2023-02-28T23:28:08.399Z,99.90
2023-02-28T23:30:43.363Z,99.90
2023-02-28T23:33:28.564Z,99.90
2023-02-28T23:36:13.813Z,99.90
2023-02-28T23:39:10.404Z,99.90
2023-02-28T23:41:57.167Z,99.90
2023-02-28T23:54:41.894Z,99.90
